createdAt,value
2018-12-16T00:01:31.645Z,-1.30
2018-12-16T00:04:06.227Z,-1.30
2018-12-16T00:06:40.921Z,-1.30
2018-12-16T00:09:15.424Z,-1.40
2018-12-16T00:11:49.809Z,-1.30
2018-12-16T00:14:24.331Z,-1.40
2018-12-16T00:16:59.014Z,-1.30
2018-12-16T00:19:33.493Z,-1.30
2018-12-16T00:22:08.076Z,-1.40
2018-12-16T00:24:49.618Z,-1.40
2018-12-16T00:27:24.211Z,-1.40
2018-12-16T00:30:00.238Z,-1.30
2018-12-16T00:32:34.751Z,-1.30
2018-12-16T00:35:09.607Z,-1.40
2018-12-16T00:37:44.332Z,-1.30
2018-12-16T00:40:18.904Z,-1.40
2018-12-16T00:42:53.503Z,-1.40
2018-12-16T00:45:28.072Z,-1.40
2018-12-16T00:48:02.447Z,-1.40
2018-12-16T00:50:37.014Z,-1.40
2018-12-16T00:53:11.720Z,-1.50
2018-12-16T00:55:46.283Z,-1.50
2018-12-16T00:58:20.723Z,-1.50
2018-12-16T01:00:55.423Z,-1.50
2018-12-16T01:03:30.142Z,-1.50
2018-12-16T01:06:04.963Z,-1.50
2018-12-16T01:08:39.964Z,-1.60
2018-12-16T01:11:14.623Z,-1.50
2018-12-16T01:13:49.130Z,-1.50
2018-12-16T01:16:23.918Z,-1.60
2018-12-16T01:18:58.416Z,-1.60
2018-12-16T01:21:33.348Z,-1.60
2018-12-16T01:24:07.981Z,-1.60
2018-12-16T01:26:42.354Z,-1.60
2018-12-16T01:29:16.772Z,-1.60
2018-12-16T01:31:51.428Z,-1.60
2018-12-16T01:34:25.856Z,-1.60
2018-12-16T01:37:00.544Z,-1.70
2018-12-16T01:39:35.228Z,-1.70
2018-12-16T01:42:09.666Z,-1.70
2018-12-16T01:44:44.439Z,-1.70
2018-12-16T01:47:18.909Z,-1.70
2018-12-16T01:49:53.416Z,-1.70
2018-12-16T01:52:28.004Z,-1.70
2018-12-16T01:55:02.528Z,-1.70
2018-12-16T01:57:37.024Z,-1.70
2018-12-16T02:00:11.781Z,-1.70
2018-12-16T02:02:46.161Z,-1.70
2018-12-16T02:05:20.888Z,-1.70
2018-12-16T02:07:55.476Z,-1.70
2018-12-16T02:10:30.034Z,-1.70
2018-12-16T02:13:04.763Z,-1.70
2018-12-16T02:15:39.225Z,-1.80
2018-12-16T02:18:13.892Z,-1.80
2018-12-16T02:20:48.609Z,-1.80
2018-12-16T02:23:23.011Z,-1.80
2018-12-16T02:25:57.571Z,-1.80
2018-12-16T02:28:32.211Z,-1.80
2018-12-16T02:31:06.884Z,-1.80
2018-12-16T02:33:41.517Z,-1.80
2018-12-16T02:36:16.132Z,-1.80
2018-12-16T02:38:50.775Z,-1.80
2018-12-16T02:41:25.507Z,-1.80
2018-12-16T02:44:00.087Z,-1.70
2018-12-16T02:46:34.579Z,-1.70
2018-12-16T02:49:09.164Z,-1.70
2018-12-16T02:51:43.857Z,-1.80
2018-12-16T02:54:18.483Z,-1.80
2018-12-16T02:56:53.093Z,-1.80
2018-12-16T02:59:27.930Z,-1.80
2018-12-16T03:02:02.241Z,-1.70
2018-12-16T03:04:36.830Z,-1.70
2018-12-16T03:07:11.388Z,-1.70
2018-12-16T03:09:46.167Z,-1.70
2018-12-16T03:12:20.610Z,-1.70
2018-12-16T03:14:55.164Z,-1.70
2018-12-16T03:17:29.890Z,-1.70
2018-12-16T03:20:05.421Z,-1.70
2018-12-16T03:22:40.064Z,-1.70
2018-12-16T03:25:14.822Z,-1.70
2018-12-16T03:27:49.360Z,-1.70
2018-12-16T03:30:24.025Z,-1.70
2018-12-16T03:32:58.713Z,-1.70
2018-12-16T03:35:33.388Z,-1.70
2018-12-16T03:38:07.919Z,-1.70
2018-12-16T03:40:42.531Z,-1.70
2018-12-16T03:43:17.031Z,-1.60
2018-12-16T03:45:51.625Z,-1.60
2018-12-16T03:48:26.379Z,-1.60
2018-12-16T03:51:01.047Z,-1.60
2018-12-16T03:53:35.556Z,-1.50
2018-12-16T03:56:10.055Z,-1.50
2018-12-16T03:59:15.289Z,-1.40
2018-12-16T04:01:54.756Z,-1.40
2018-12-16T04:04:29.391Z,-1.40
2018-12-16T04:07:04.109Z,-1.40
2018-12-16T04:09:38.631Z,-1.40
2018-12-16T04:12:13.199Z,-1.40
2018-12-16T04:14:47.662Z,-1.40
2018-12-16T04:17:22.368Z,-1.40
2018-12-16T04:19:56.941Z,-1.40
2018-12-16T04:22:31.492Z,-1.40
2018-12-16T04:25:06.335Z,-1.40
2018-12-16T04:27:40.891Z,-1.40
2018-12-16T04:30:15.567Z,-1.40
2018-12-16T04:32:50.012Z,-1.40
2018-12-16T04:35:24.635Z,-1.50
2018-12-16T04:37:59.196Z,-1.50
2018-12-16T04:40:33.903Z,-1.50
2018-12-16T04:43:08.585Z,-1.40
2018-12-16T04:45:43.139Z,-1.40
2018-12-16T04:48:17.606Z,-1.40
2018-12-16T04:50:52.332Z,-1.30
2018-12-16T04:53:26.864Z,-1.30
2018-12-16T04:56:01.536Z,-1.30
2018-12-16T04:58:36.039Z,-1.30
2018-12-16T05:01:10.519Z,-1.30
2018-12-16T05:03:45.219Z,-1.30
2018-12-16T05:06:19.921Z,-1.20
2018-12-16T05:08:54.429Z,-1.20
2018-12-16T05:11:28.923Z,-1.30
2018-12-16T05:14:03.648Z,-1.20
2018-12-16T05:16:38.153Z,-1.20
2018-12-16T05:19:12.852Z,-1.20
2018-12-16T05:21:47.394Z,-1.10
2018-12-16T05:24:22.093Z,-1.10
2018-12-16T05:26:56.712Z,-1.00
2018-12-16T05:29:31.091Z,-1.10
2018-12-16T05:32:05.724Z,-1.10
2018-12-16T05:34:40.243Z,-1.00
2018-12-16T05:37:14.903Z,-1.00
2018-12-16T05:39:49.461Z,-1.00
2018-12-16T05:42:24.115Z,-1.00
2018-12-16T05:44:58.794Z,-1.00
2018-12-16T05:47:33.323Z,-1.00
2018-12-16T05:50:08.299Z,-1.00
2018-12-16T05:52:42.836Z,-1.00
2018-12-16T05:55:17.380Z,-1.00
2018-12-16T05:57:51.986Z,-1.00
2018-12-16T06:00:26.559Z,-0.90
2018-12-16T06:03:01.044Z,-0.90
2018-12-16T06:05:35.758Z,-1.00
2018-12-16T06:08:10.220Z,-1.00
2018-12-16T06:10:44.884Z,-1.00
2018-12-16T06:13:19.515Z,-1.00
2018-12-16T06:15:54.163Z,-0.90
2018-12-16T06:18:28.794Z,-0.90
2018-12-16T06:21:03.503Z,-0.90
2018-12-16T06:23:37.992Z,-0.90
2018-12-16T06:26:12.626Z,-0.90
2018-12-16T06:28:47.236Z,-0.90
2018-12-16T06:31:21.697Z,-0.90
2018-12-16T06:33:56.128Z,-0.80
2018-12-16T06:36:30.640Z,-0.80
2018-12-16T06:39:06.505Z,-0.80
2018-12-16T06:41:41.044Z,-0.80
2018-12-16T06:44:15.482Z,-0.80
2018-12-16T06:46:50.106Z,-0.80
2018-12-16T06:49:24.684Z,-0.80
2018-12-16T06:51:59.252Z,-0.70
2018-12-16T06:54:33.848Z,-0.70
2018-12-16T06:57:08.302Z,-0.70
2018-12-16T06:59:42.871Z,-0.70
2018-12-16T07:02:17.432Z,-0.70
2018-12-16T07:04:52.567Z,-0.70
2018-12-16T07:07:27.234Z,-0.70
2018-12-16T07:10:01.710Z,-0.70
2018-12-16T07:12:36.128Z,-0.70
2018-12-16T07:15:10.687Z,-0.70
2018-12-16T07:17:45.340Z,-0.60
2018-12-16T07:20:20.017Z,-0.70
2018-12-16T07:22:54.790Z,-0.60
2018-12-16T07:25:29.376Z,-0.60
2018-12-16T07:28:03.991Z,-0.60
2018-12-16T07:30:38.475Z,-0.60
2018-12-16T07:33:12.910Z,-0.60
2018-12-16T07:35:47.566Z,-0.60
2018-12-16T07:38:22.121Z,-0.60
2018-12-16T07:40:56.669Z,-0.60
2018-12-16T07:43:31.315Z,-0.60
2018-12-16T07:46:06.079Z,-0.60
2018-12-16T07:48:40.738Z,-0.60
2018-12-16T07:51:15.386Z,-0.60
2018-12-16T07:53:49.968Z,-0.60
2018-12-16T07:56:24.508Z,-0.60
2018-12-16T07:58:59.075Z,-0.60
2018-12-16T08:01:39.362Z,-0.60
2018-12-16T08:04:13.865Z,-0.60
2018-12-16T08:06:48.444Z,-0.50
2018-12-16T08:09:23.437Z,-0.50
2018-12-16T08:11:57.912Z,-0.40
2018-12-16T08:14:32.795Z,-0.40
2018-12-16T08:17:08.069Z,-0.30
2018-12-16T08:19:42.654Z,-0.40
2018-12-16T08:22:17.199Z,-0.40
2018-12-16T08:24:51.897Z,-0.40
2018-12-16T08:27:26.491Z,-0.30
2018-12-16T08:30:01.029Z,-0.30
2018-12-16T08:32:35.737Z,-0.30
2018-12-16T08:35:10.132Z,-0.20
2018-12-16T08:37:44.853Z,-0.10
2018-12-16T08:40:19.444Z,-0.10
2018-12-16T08:42:54.101Z,0.00
2018-12-16T08:45:28.763Z,0.10
2018-12-16T08:48:03.388Z,0.10
2018-12-16T08:50:38.702Z,0.20
2018-12-16T08:53:13.367Z,0.20
2018-12-16T08:55:47.974Z,0.20
2018-12-16T08:58:22.468Z,0.30
2018-12-16T09:00:57.032Z,0.30
2018-12-16T09:03:31.367Z,0.30
2018-12-16T09:06:06.040Z,0.30
2018-12-16T09:08:40.919Z,0.30
2018-12-16T09:11:15.584Z,0.30
2018-12-16T09:13:50.230Z,0.40
2018-12-16T09:16:25.002Z,0.40
2018-12-16T09:18:59.594Z,0.30
2018-12-16T09:21:34.870Z,0.40
2018-12-16T09:24:09.467Z,0.50
2018-12-16T09:26:44.144Z,0.40
2018-12-16T09:29:19.389Z,0.40
2018-12-16T09:31:54.072Z,0.40
2018-12-16T09:34:28.536Z,0.50
2018-12-16T09:37:03.293Z,0.50
2018-12-16T09:39:37.792Z,0.40
2018-12-16T09:42:12.437Z,0.40
2018-12-16T09:44:47.132Z,0.50
2018-12-16T09:47:21.834Z,0.50
2018-12-16T09:49:56.432Z,0.60
2018-12-16T09:52:30.925Z,0.60
2018-12-16T09:55:06.387Z,0.50
2018-12-16T09:57:41.420Z,0.60
2018-12-16T10:00:16.092Z,0.60
2018-12-16T10:02:50.685Z,0.50
2018-12-16T10:05:25.125Z,0.50
2018-12-16T10:07:59.745Z,0.50
2018-12-16T10:10:34.284Z,0.60
2018-12-16T10:13:08.805Z,0.50
2018-12-16T10:15:43.491Z,0.60
2018-12-16T10:18:17.936Z,0.60
2018-12-16T10:20:53.776Z,0.60
2018-12-16T10:23:28.517Z,0.60
2018-12-16T10:26:03.930Z,0.60
2018-12-16T10:28:39.435Z,0.70
2018-12-16T10:31:13.950Z,0.70
2018-12-16T10:33:48.560Z,0.80
2018-12-16T10:36:23.340Z,0.70
2018-12-16T10:38:57.945Z,0.70
2018-12-16T10:41:32.621Z,0.80
2018-12-16T10:44:07.337Z,0.80
2018-12-16T10:46:41.740Z,0.80
2018-12-16T10:49:16.411Z,0.90
2018-12-16T10:51:50.959Z,0.90
2018-12-16T10:54:25.643Z,0.90
2018-12-16T10:57:01.380Z,0.90
2018-12-16T10:59:37.014Z,1.00
2018-12-16T11:02:11.920Z,1.10
2018-12-16T11:04:46.745Z,1.10
2018-12-16T11:07:23.300Z,1.10
2018-12-16T11:09:57.913Z,1.10
2018-12-16T11:12:34.151Z,1.10
2018-12-16T11:15:08.843Z,1.00
2018-12-16T11:17:43.751Z,1.00
2018-12-16T11:20:18.736Z,1.00
2018-12-16T11:22:53.356Z,1.00
2018-12-16T11:25:28.122Z,1.00
2018-12-16T11:28:08.076Z,1.00
2018-12-16T11:30:42.727Z,1.10
2018-12-16T11:33:18.396Z,1.10
2018-12-16T11:35:52.920Z,1.10
2018-12-16T11:38:27.466Z,1.10
2018-12-16T11:41:07.722Z,1.20
2018-12-16T11:43:42.280Z,1.10
2018-12-16T11:46:16.879Z,1.10
2018-12-16T11:48:52.419Z,1.10
2018-12-16T11:51:28.031Z,1.10
2018-12-16T11:54:02.871Z,1.10
2018-12-16T11:56:37.505Z,1.20
2018-12-16T11:59:12.170Z,1.30
2018-12-16T12:01:46.788Z,1.30
2018-12-16T12:04:21.291Z,1.20
2018-12-16T12:06:55.990Z,1.20
2018-12-16T12:09:30.451Z,1.10
2018-12-16T12:12:04.983Z,1.10
2018-12-16T12:14:39.604Z,1.10
2018-12-16T12:17:14.163Z,1.20
2018-12-16T12:19:48.664Z,1.20
2018-12-16T12:22:23.193Z,1.20
2018-12-16T12:24:57.680Z,1.20
2018-12-16T12:27:32.423Z,1.30
2018-12-16T12:30:09.035Z,1.30
2018-12-16T12:32:43.406Z,1.30
2018-12-16T12:35:18.056Z,1.40
2018-12-16T12:37:54.726Z,1.50
2018-12-16T12:40:29.214Z,1.50
2018-12-16T12:43:03.855Z,1.50
2018-12-16T12:45:38.470Z,1.50
2018-12-16T12:48:13.872Z,1.50
2018-12-16T12:50:48.439Z,1.50
2018-12-16T12:53:22.843Z,1.50
2018-12-16T12:55:57.496Z,1.50
2018-12-16T12:58:33.171Z,1.50
2018-12-16T13:01:16.040Z,1.40
2018-12-16T13:03:50.840Z,1.30
2018-12-16T13:06:25.509Z,1.30
2018-12-16T13:09:00.072Z,1.20
2018-12-16T13:11:35.344Z,1.30
2018-12-16T13:14:10.180Z,1.20
2018-12-16T13:16:44.810Z,1.20
2018-12-16T13:19:19.564Z,1.20
2018-12-16T13:21:54.112Z,1.10
2018-12-16T13:24:28.736Z,1.10
2018-12-16T13:27:03.340Z,1.10
2018-12-16T13:29:37.932Z,1.10
2018-12-16T13:32:13.553Z,1.10
2018-12-16T13:34:48.135Z,1.10
2018-12-16T13:37:22.940Z,1.00
2018-12-16T13:39:57.271Z,1.00
2018-12-16T13:42:31.894Z,1.00
2018-12-16T13:45:07.580Z,1.00
2018-12-16T13:50:22.655Z,0.90
2018-12-16T13:52:57.748Z,1.00
2018-12-16T13:55:32.524Z,1.00
2018-12-16T13:58:07.000Z,1.00
2018-12-16T14:00:41.757Z,0.90
2018-12-16T14:03:16.624Z,0.90
2018-12-16T14:05:50.964Z,0.90
2018-12-16T14:08:26.553Z,0.90
2018-12-16T14:11:01.417Z,0.80
2018-12-16T14:13:36.006Z,0.80
2018-12-16T14:16:11.329Z,0.80
2018-12-16T14:18:46.120Z,0.80
2018-12-16T14:21:20.968Z,0.70
2018-12-16T14:23:55.303Z,0.70
2018-12-16T14:26:30.978Z,0.70
2018-12-16T14:29:08.711Z,0.70
2018-12-16T14:31:44.108Z,0.70
2018-12-16T14:34:18.994Z,0.70
2018-12-16T14:36:53.467Z,0.80
2018-12-16T14:39:29.587Z,0.80
2018-12-16T14:42:04.269Z,0.80
2018-12-16T14:44:39.015Z,0.80
2018-12-16T14:47:13.749Z,0.80
2018-12-16T14:49:48.540Z,0.80
2018-12-16T14:52:23.140Z,0.70
2018-12-16T14:54:58.073Z,0.80
2018-12-16T14:57:32.766Z,0.80
2018-12-16T15:00:10.325Z,0.80
2018-12-16T15:02:45.064Z,0.80
2018-12-16T15:05:19.734Z,0.80
2018-12-16T15:07:54.587Z,0.80
2018-12-16T15:10:29.607Z,0.80
2018-12-16T15:13:04.197Z,0.80
2018-12-16T15:15:39.149Z,0.70
2018-12-16T15:18:13.697Z,0.80
2018-12-16T15:20:48.195Z,0.80
2018-12-16T15:23:22.815Z,0.80
2018-12-16T15:26:01.964Z,0.80
2018-12-16T15:28:34.064Z,0.80
2018-12-16T15:31:08.472Z,0.80
2018-12-16T15:33:43.071Z,0.80
2018-12-16T15:36:17.780Z,0.70
2018-12-16T15:38:52.712Z,0.70
2018-12-16T15:41:27.305Z,0.70
2018-12-16T15:44:02.208Z,0.60
2018-12-16T15:46:36.571Z,0.60
2018-12-16T15:49:12.124Z,0.50
2018-12-16T15:51:46.885Z,0.40
2018-12-16T15:54:21.371Z,0.40
2018-12-16T15:56:55.992Z,0.30
2018-12-16T15:59:30.611Z,0.30
2018-12-16T16:02:05.209Z,0.30
2018-12-16T16:04:39.888Z,0.40
2018-12-16T16:07:14.623Z,0.30
2018-12-16T16:09:49.012Z,0.40
2018-12-16T16:12:23.707Z,0.40
2018-12-16T16:14:58.276Z,0.30
2018-12-16T16:17:33.891Z,0.30
2018-12-16T16:20:08.751Z,0.40
2018-12-16T16:22:43.258Z,0.40
2018-12-16T16:25:17.871Z,0.50
2018-12-16T16:27:52.468Z,0.60
2018-12-16T16:30:27.095Z,0.60
2018-12-16T16:33:01.493Z,0.60
2018-12-16T16:35:37.046Z,0.60
2018-12-16T16:38:11.723Z,0.60
2018-12-16T16:40:46.480Z,0.60
2018-12-16T16:43:21.131Z,0.60
2018-12-16T16:45:55.775Z,0.60
2018-12-16T16:48:32.405Z,0.70
2018-12-16T16:51:07.267Z,0.70
2018-12-16T16:53:41.786Z,0.70
2018-12-16T16:56:22.902Z,0.70
2018-12-16T16:58:53.653Z,0.70
2018-12-16T17:01:28.288Z,0.80
2018-12-16T17:04:02.735Z,0.80
2018-12-16T17:06:37.282Z,0.80
2018-12-16T17:09:11.899Z,0.80
2018-12-16T17:11:47.216Z,0.80
2018-12-16T17:14:21.894Z,0.80
2018-12-16T17:16:56.477Z,0.80
2018-12-16T17:19:31.160Z,0.80
2018-12-16T17:22:05.998Z,0.80
2018-12-16T17:24:40.534Z,0.90
2018-12-16T17:27:15.155Z,0.80
2018-12-16T17:29:49.720Z,0.80
2018-12-16T17:32:24.302Z,0.80
2018-12-16T17:34:58.994Z,0.80
2018-12-16T17:37:33.544Z,0.80
2018-12-16T17:40:08.396Z,0.80
2018-12-16T17:42:43.035Z,0.80
2018-12-16T17:45:17.476Z,0.80
2018-12-16T17:47:52.390Z,0.90
2018-12-16T17:50:26.951Z,0.80
2018-12-16T17:53:01.681Z,0.80
2018-12-16T17:55:36.516Z,0.80
2018-12-16T17:58:10.947Z,0.80
2018-12-16T18:00:45.783Z,0.80
2018-12-16T18:03:20.375Z,0.70
2018-12-16T18:05:55.163Z,0.70
2018-12-16T18:08:29.668Z,0.80
2018-12-16T18:11:04.311Z,0.80
2018-12-16T18:13:38.790Z,0.80
2018-12-16T18:16:13.430Z,0.80
2018-12-16T18:18:48.043Z,0.80
2018-12-16T18:21:22.577Z,0.80
2018-12-16T18:23:57.213Z,0.80
2018-12-16T18:26:31.773Z,0.80
2018-12-16T18:29:06.417Z,0.80
2018-12-16T18:31:40.855Z,0.80
2018-12-16T18:34:15.451Z,0.80
2018-12-16T18:36:50.179Z,0.80
2018-12-16T18:39:24.902Z,0.80
2018-12-16T18:42:00.680Z,0.90
2018-12-16T18:44:35.244Z,0.90
2018-12-16T18:47:10.556Z,0.90
2018-12-16T18:49:45.115Z,0.90
2018-12-16T18:52:20.422Z,0.90
2018-12-16T18:54:54.880Z,0.90
2018-12-16T18:57:30.679Z,0.90
2018-12-16T19:00:10.128Z,1.00
2018-12-16T19:02:44.776Z,1.10
2018-12-16T19:05:19.869Z,0.90
2018-12-16T19:07:57.537Z,0.90
2018-12-16T19:10:31.977Z,0.90
2018-12-16T19:13:07.663Z,0.90
2018-12-16T19:15:42.808Z,1.00
2018-12-16T19:18:17.417Z,0.90
2018-12-16T19:20:54.936Z,1.00
2018-12-16T19:23:29.439Z,1.00
2018-12-16T19:26:04.267Z,1.00
2018-12-16T19:28:38.685Z,1.00
2018-12-16T19:31:13.880Z,1.00
2018-12-16T19:33:48.656Z,1.00
2018-12-16T19:36:23.173Z,1.00
2018-12-16T19:38:57.827Z,1.00
2018-12-16T19:41:32.360Z,1.00
2018-12-16T19:44:06.855Z,1.10
2018-12-16T19:46:41.461Z,1.10
2018-12-16T19:49:17.083Z,1.10
2018-12-16T19:51:51.590Z,1.10
2018-12-16T19:54:26.566Z,1.20
2018-12-16T19:57:05.075Z,1.20
2018-12-16T19:59:37.675Z,1.20
2018-12-16T20:02:12.115Z,1.20
2018-12-16T20:04:53.223Z,1.20
2018-12-16T20:07:27.997Z,1.20
2018-12-16T20:10:02.604Z,1.20
2018-12-16T20:12:38.125Z,1.20
2018-12-16T20:15:12.916Z,1.30
2018-12-16T20:17:48.352Z,1.30
2018-12-16T20:20:22.959Z,1.40
2018-12-16T20:22:58.721Z,1.40
2018-12-16T20:25:33.158Z,1.40
2018-12-16T20:28:08.532Z,1.40
2018-12-16T20:30:43.249Z,1.40
2018-12-16T20:33:20.272Z,1.40
2018-12-16T20:35:55.859Z,1.40
2018-12-16T20:38:30.520Z,1.40
2018-12-16T20:41:06.311Z,1.40
2018-12-16T20:43:41.141Z,1.50
2018-12-16T20:46:16.476Z,1.50
2018-12-16T20:48:51.444Z,1.50
2018-12-16T20:51:26.176Z,1.50
2018-12-16T20:54:01.521Z,1.50
2018-12-16T20:56:40.138Z,1.50
2018-12-16T20:59:14.883Z,1.60
2018-12-16T21:01:51.201Z,1.60
2018-12-16T21:04:25.758Z,1.60
2018-12-16T21:07:01.149Z,1.60
2018-12-16T21:09:36.578Z,1.60
2018-12-16T21:14:20.605Z,1.60
2018-12-16T21:17:00.552Z,1.60
2018-12-16T21:19:37.150Z,1.70
2018-12-16T21:22:12.903Z,1.80
2018-12-16T21:24:49.183Z,1.80
2018-12-16T21:27:26.168Z,1.80
2018-12-16T21:30:03.174Z,1.80
2018-12-16T21:32:37.936Z,1.80
2018-12-16T21:35:15.548Z,1.90
2018-12-16T21:37:50.544Z,1.90
2018-12-16T21:40:25.366Z,1.90
2018-12-16T21:43:01.121Z,1.90
2018-12-16T21:45:35.805Z,1.90
2018-12-16T21:48:10.358Z,2.00
2018-12-16T22:07:13.878Z,2.00
2018-12-16T22:09:49.246Z,2.00
2018-12-16T22:12:24.932Z,1.90
2018-12-16T22:15:00.208Z,1.90
2018-12-16T22:17:41.327Z,1.90
2018-12-16T22:20:17.064Z,2.00
2018-12-16T22:22:52.090Z,2.00
2018-12-16T22:25:28.955Z,2.00
2018-12-16T22:28:04.289Z,2.00
2018-12-16T22:30:38.903Z,2.00
2018-12-16T22:33:15.679Z,2.00
2018-12-16T22:35:50.233Z,2.00
2018-12-16T22:38:26.051Z,2.00
2018-12-16T22:41:01.567Z,2.00
2018-12-16T22:43:46.144Z,2.10
2018-12-16T22:46:21.858Z,2.10
2018-12-16T22:48:57.517Z,2.10
2018-12-16T22:51:33.312Z,2.10
2018-12-16T22:54:08.180Z,2.10
2018-12-16T22:56:42.645Z,2.10
2018-12-16T22:59:17.743Z,2.10
2018-12-16T23:01:52.890Z,2.10
2018-12-16T23:04:28.177Z,2.20
2018-12-16T23:07:04.321Z,2.20
2018-12-16T23:09:38.886Z,2.20
2018-12-16T23:12:14.652Z,2.20
2018-12-16T23:14:51.033Z,2.20
2018-12-16T23:17:26.989Z,2.20
2018-12-16T23:20:09.500Z,2.20
2018-12-16T23:22:45.321Z,2.20
2018-12-16T23:25:20.970Z,2.20
2018-12-16T23:27:55.633Z,2.20
2018-12-16T23:30:30.445Z,2.20
2018-12-16T23:33:05.684Z,2.20
2018-12-16T23:35:41.436Z,2.20
2018-12-16T23:38:17.176Z,2.20
2018-12-16T23:40:52.585Z,2.30
2018-12-16T23:43:27.359Z,2.30
2018-12-16T23:46:03.064Z,2.30
2018-12-16T23:48:38.551Z,2.30
2018-12-16T23:51:14.206Z,2.30
2018-12-16T23:53:49.237Z,2.30
2018-12-16T23:56:24.193Z,2.30
2018-12-16T23:59:07.360Z,2.30
